Time;durP1;ratioP1;P1;durP2;ratioP2;P2;SDS_P1;SDS_P2;PMS_P1;PMS_P2;Temp;Humidity;BMP_temperature;BMP_pressure;BME280_temperature;BME280_humidity;BME280_pressure;Samples;Min_cycle;Max_cycle;Signal;HPM_P1;HPM_P2
2024/03/26 00:01:11;;;;;;;13.65;4.30;;;3.10;99.90;;;;;;4957135;28;20085;-75
2024/03/26 00:03:37;;;;;;;9.93;3.75;;;3.10;99.90;;;;;;4963409;28;20110;-75
2024/03/26 00:06:11;;;;;;;7.28;4.10;;;3.00;99.90;;;;;;4970547;28;20178;-75
2024/03/26 00:08:37;;;;;;;9.77;5.00;;;3.10;99.90;;;;;;4972076;28;20504;-75
2024/03/26 00:11:06;;;;;;;10.07;4.40;;;3.10;99.90;;;;;;4971974;28;20054;-75
2024/03/26 00:13:35;;;;;;;9.57;4.78;;;3.00;99.90;;;;;;4986458;28;20402;-75
2024/03/26 00:16:00;;;;;;;12.80;5.15;;;3.00;99.90;;;;;;4972003;28;20027;-75
2024/03/26 00:18:29;;;;;;;12.25;5.30;;;3.00;99.90;;;;;;4972221;28;20046;-75
2024/03/26 00:20:57;;;;;;;10.82;5.07;;;3.00;99.90;;;;;;4978659;28;20027;-75
2024/03/26 00:23:23;;;;;;;9.38;4.18;;;3.00;99.90;;;;;;4970213;28;20071;-75
2024/03/26 00:25:49;;;;;;;11.50;5.28;;;3.00;99.90;;;;;;4958423;28;20566;-74
2024/03/26 00:28:20;;;;;;;7.72;4.55;;;2.90;99.90;;;;;;4951101;28;20024;-75
2024/03/26 00:30:52;;;;;;;9.80;4.70;;;2.90;99.90;;;;;;4952374;28;20055;-75
2024/03/26 00:33:20;;;;;;;11.23;4.63;;;2.90;99.90;;;;;;4951845;28;20031;-75
2024/03/26 00:35:49;;;;;;;12.75;4.45;;;2.90;99.90;;;;;;4952038;28;20151;-74
2024/03/26 00:38:14;;;;;;;7.00;4.50;;;2.90;99.90;;;;;;4952627;28;20035;-75
2024/03/26 00:40:43;;;;;;;12.23;4.78;;;2.90;99.90;;;;;;4950940;28;20410;-75
2024/03/26 00:43:11;;;;;;;11.02;4.45;;;2.80;99.90;;;;;;4979293;28;20049;-75
2024/03/26 00:45:37;;;;;;;11.95;4.50;;;2.80;99.90;;;;;;4952316;28;20113;-75
2024/03/26 00:48:05;;;;;;;12.05;4.63;;;2.80;99.90;;;;;;4950923;28;20023;-75
2024/03/26 00:50:31;;;;;;;10.02;4.35;;;2.70;99.90;;;;;;4982614;28;20016;-75
2024/03/26 00:52:59;;;;;;;7.28;3.53;;;2.70;99.90;;;;;;4950669;28;20445;-75
2024/03/26 00:55:25;;;;;;;7.68;3.60;;;2.70;99.90;;;;;;4952680;28;20023;-75
2024/03/26 00:57:53;;;;;;;8.98;4.32;;;2.80;99.90;;;;;;4971358;28;20093;-74
2024/03/26 01:00:20;;;;;;;8.98;3.85;;;2.80;99.90;;;;;;4986055;28;20027;-75
2024/03/26 01:02:46;;;;;;;11.63;4.75;;;2.80;99.90;;;;;;4985859;28;20022;-75
2024/03/26 01:05:12;;;;;;;10.43;4.07;;;2.80;99.90;;;;;;4970075;28;20050;-75
2024/03/26 01:07:46;;;;;;;10.77;4.65;;;2.80;99.90;;;;;;4970146;28;20027;-75
2024/03/26 01:10:14;;;;;;;17.88;5.03;;;2.70;99.90;;;;;;4971410;28;20035;-75
2024/03/26 01:12:39;;;;;;;8.10;4.45;;;2.70;99.90;;;;;;4970837;28;20045;-74
2024/03/26 01:15:08;;;;;;;6.82;4.28;;;2.60;99.90;;;;;;4971213;28;20034;-75
2024/03/26 01:17:34;;;;;;;6.70;3.67;;;2.60;99.90;;;;;;4971161;28;20035;-75
2024/03/26 01:20:00;;;;;;;8.95;3.83;;;2.50;99.90;;;;;;4971098;28;20512;-75
2024/03/26 01:22:29;;;;;;;7.68;4.05;;;2.50;99.90;;;;;;4967575;28;20110;-74
2024/03/26 01:24:55;;;;;;;8.60;4.25;;;2.50;99.90;;;;;;4951915;28;20491;-77
2024/03/26 01:27:24;;;;;;;6.85;4.38;;;2.50;99.90;;;;;;4967392;28;20027;-74
2024/03/26 01:29:52;;;;;;;10.70;3.92;;;2.50;99.90;;;;;;4969864;28;20027;-75
2024/03/26 01:32:21;;;;;;;6.55;4.15;;;2.40;99.90;;;;;;4969366;28;20027;-74
2024/03/26 01:34:46;;;;;;;7.90;4.00;;;2.40;99.90;;;;;;4969772;28;20023;-74
2024/03/26 01:37:15;;;;;;;10.23;5.53;;;2.40;99.90;;;;;;4969877;28;20053;-75
2024/03/26 01:39:43;;;;;;;13.57;4.10;;;2.40;99.90;;;;;;4971133;28;20643;-75
2024/03/26 01:42:09;;;;;;;7.30;3.92;;;2.40;99.90;;;;;;4985277;28;20411;-75
2024/03/26 01:44:37;;;;;;;8.05;4.38;;;2.40;99.90;;;;;;4970932;28;20107;-74
2024/03/26 01:47:04;;;;;;;11.40;4.85;;;2.30;99.90;;;;;;4971057;28;20027;-75
2024/03/26 01:49:34;;;;;;;6.82;4.97;;;2.30;99.90;;;;;;4974456;28;20023;-75
2024/03/26 01:52:00;;;;;;;6.85;4.22;;;2.40;99.90;;;;;;4972877;28;20030;-74
2024/03/26 01:54:27;;;;;;;9.80;4.93;;;2.30;99.90;;;;;;4974808;28;20034;-74
2024/03/26 01:56:56;;;;;;;6.30;3.92;;;2.40;99.90;;;;;;4973317;28;20031;-75
2024/03/26 01:59:25;;;;;;;13.77;4.85;;;2.30;99.90;;;;;;4973148;28;20022;-75
2024/03/26 02:01:50;;;;;;;9.00;4.55;;;2.30;99.90;;;;;;4988869;28;20393;-75
2024/03/26 02:04:16;;;;;;;13.15;5.07;;;2.40;99.90;;;;;;4974526;28;20015;-75
2024/03/26 02:06:45;;;;;;;12.57;5.35;;;2.40;99.90;;;;;;4989316;28;20258;-75
2024/03/26 02:09:14;;;;;;;9.95;5.13;;;2.40;99.90;;;;;;4974269;28;20030;-75
2024/03/26 02:11:40;;;;;;;8.82;4.95;;;2.40;99.90;;;;;;4954802;28;20062;-75
2024/03/26 02:14:06;;;;;;;9.73;5.03;;;2.40;99.90;;;;;;4969650;28;20054;-75
2024/03/26 02:16:32;;;;;;;11.55;5.50;;;2.40;99.90;;;;;;4954841;28;20562;-75
2024/03/26 02:18:58;;;;;;;15.63;5.75;;;2.50;99.90;;;;;;4969694;28;20525;-74
2024/03/26 02:21:27;;;;;;;11.55;5.90;;;2.50;99.90;;;;;;4969680;28;20550;-75
2024/03/26 02:23:53;;;;;;;10.00;5.78;;;2.50;99.90;;;;;;4954384;28;20020;-76
2024/03/26 02:26:19;;;;;;;10.63;5.15;;;2.50;99.90;;;;;;4968864;28;20513;-74
2024/03/26 02:28:44;;;;;;;10.88;5.50;;;2.60;99.90;;;;;;4969499;28;20482;-75
2024/03/26 02:31:10;;;;;;;16.23;5.32;;;2.50;99.90;;;;;;4962741;28;20034;-75
2024/03/26 02:33:36;;;;;;;11.38;5.50;;;2.60;99.90;;;;;;4954239;28;20039;-75
2024/03/26 02:36:02;;;;;;;13.77;6.55;;;2.60;99.90;;;;;;4954498;28;20110;-75
2024/03/26 02:38:30;;;;;;;20.90;7.75;;;2.60;99.90;;;;;;4969186;28;20023;-75
2024/03/26 02:40:59;;;;;;;15.93;7.68;;;2.60;99.90;;;;;;4953629;28;20024;-75
2024/03/26 02:43:27;;;;;;;11.32;5.82;;;2.60;99.90;;;;;;4963045;28;20390;-75
2024/03/26 02:45:53;;;;;;;14.57;6.35;;;2.60;99.90;;;;;;4973663;28;20023;-75
2024/03/26 02:48:21;;;;;;;11.18;5.82;;;2.60;99.90;;;;;;4972289;28;20019;-75
2024/03/26 02:50:50;;;;;;;15.27;6.00;;;2.60;99.90;;;;;;4988582;28;20205;-75
2024/03/26 02:53:16;;;;;;;9.90;6.45;;;2.50;99.90;;;;;;4971899;28;20026;-75
2024/03/26 02:55:45;;;;;;;18.13;7.65;;;2.40;99.90;;;;;;4973394;28;20033;-75
2024/03/26 02:58:10;;;;;;;15.98;7.38;;;2.40;99.90;;;;;;4971868;28;20089;-75
2024/03/26 03:00:38;;;;;;;9.30;5.43;;;2.40;99.90;;;;;;4973240;28;20038;-75
2024/03/26 03:03:05;;;;;;;16.67;6.70;;;2.40;99.90;;;;;;4971679;28;20030;-75
2024/03/26 03:05:33;;;;;;;11.55;6.80;;;2.40;99.90;;;;;;4988179;28;20074;-75
2024/03/26 03:08:02;;;;;;;17.80;6.55;;;2.40;99.90;;;;;;4973229;28;20045;-75
2024/03/26 03:10:28;;;;;;;13.45;6.60;;;2.40;99.90;;;;;;4972867;28;20441;-75
2024/03/26 03:12:53;;;;;;;12.15;6.55;;;2.40;99.90;;;;;;4972270;28;20022;-75
2024/03/26 03:15:25;;;;;;;20.70;8.07;;;2.30;99.90;;;;;;4984625;28;20094;-75
2024/03/26 03:17:51;;;;;;;16.00;6.78;;;2.30;99.90;;;;;;4963961;28;20476;-75
2024/03/26 03:20:19;;;;;;;13.68;6.20;;;2.30;99.90;;;;;;4971274;28;20046;-75
2024/03/26 03:22:45;;;;;;;15.10;7.13;;;2.30;99.90;;;;;;4970576;28;20023;-75
2024/03/26 03:25:11;;;;;;;13.45;6.25;;;2.30;99.90;;;;;;4972676;28;20054;-75
2024/03/26 03:27:37;;;;;;;14.27;7.05;;;2.30;99.90;;;;;;4970895;28;20510;-75
2024/03/26 03:30:07;;;;;;;11.77;6.85;;;2.30;99.90;;;;;;4972511;28;20065;-75
2024/03/26 03:32:32;;;;;;;13.80;7.00;;;2.20;99.90;;;;;;4971566;28;20484;-75
2024/03/26 03:34:58;;;;;;;13.95;6.10;;;2.20;99.90;;;;;;4970856;28;20023;-75
2024/03/26 03:37:31;;;;;;;16.35;7.93;;;2.30;99.90;;;;;;4983665;28;20023;-75
2024/03/26 03:39:57;;;;;;;13.38;6.90;;;2.30;99.90;;;;;;4952856;28;20034;-75
2024/03/26 03:42:26;;;;;;;18.38;7.55;;;2.20;99.90;;;;;;4952446;28;20022;-75
2024/03/26 03:44:54;;;;;;;17.10;7.70;;;2.20;99.90;;;;;;4956604;28;20569;-74
2024/03/26 03:47:23;;;;;;;19.10;8.15;;;2.20;99.90;;;;;;4956411;28;20027;-75
2024/03/26 03:49:48;;;;;;;17.08;7.47;;;2.20;99.90;;;;;;4952409;28;20023;-75
2024/03/26 03:52:17;;;;;;;18.67;7.55;;;2.20;99.90;;;;;;4966952;28;20030;-75
2024/03/26 03:54:45;;;;;;;14.07;7.07;;;2.20;99.90;;;;;;4952873;28;20447;-75
2024/03/26 03:57:13;;;;;;;19.85;7.88;;;2.20;99.90;;;;;;4967337;28;20094;-74
2024/03/26 03:59:39;;;;;;;15.05;7.88;;;2.20;99.90;;;;;;4952319;28;20023;-75
2024/03/26 04:02:07;;;;;;;17.38;8.23;;;2.10;99.90;;;;;;4952271;28;20082;-75
2024/03/26 04:04:35;;;;;;;13.68;7.97;;;2.10;99.90;;;;;;4975351;28;20023;-75
2024/03/26 04:07:01;;;;;;;28.30;9.63;;;2.10;99.90;;;;;;4967113;28;20019;-75
2024/03/26 04:09:30;;;;;;;17.48;7.57;;;2.20;99.90;;;;;;4967066;28;20348;-75
2024/03/26 04:11:56;;;;;;;20.08;8.52;;;2.10;99.90;;;;;;4949902;28;20502;-75
2024/03/26 04:14:25;;;;;;;11.52;7.43;;;2.20;99.90;;;;;;4950767;28;20027;-75
2024/03/26 04:16:53;;;;;;;15.05;7.20;;;2.10;99.90;;;;;;4963395;28;20086;-75
2024/03/26 04:19:19;;;;;;;16.58;8.20;;;2.10;99.90;;;;;;4971684;28;20019;-75
2024/03/26 04:21:45;;;;;;;14.48;7.18;;;2.10;99.90;;;;;;4970199;28;20389;-75
2024/03/26 04:24:11;;;;;;;14.70;7.47;;;2.10;99.90;;;;;;4963698;28;20489;-75
2024/03/26 04:26:37;;;;;;;16.52;7.65;;;2.10;99.90;;;;;;4951853;28;20050;-74
2024/03/26 04:29:03;;;;;;;19.67;8.50;;;2.10;99.90;;;;;;4950660;28;20031;-74
2024/03/26 04:31:28;;;;;;;14.45;7.72;;;2.10;99.90;;;;;;4979881;28;20074;-74
2024/03/26 04:33:54;;;;;;;20.65;9.00;;;2.10;99.90;;;;;;4950324;28;20085;-75
2024/03/26 04:36:20;;;;;;;15.20;8.48;;;2.10;99.90;;;;;;4951899;28;20402;-75
2024/03/26 04:38:46;;;;;;;15.98;8.80;;;2.10;99.90;;;;;;4950598;28;20479;-74
2024/03/26 04:41:13;;;;;;;17.30;7.78;;;2.10;99.90;;;;;;4950514;28;20038;-75
2024/03/26 04:43:39;;;;;;;15.73;8.57;;;2.00;99.90;;;;;;4951545;28;20042;-74
2024/03/26 04:46:04;;;;;;;14.63;7.93;;;2.00;99.90;;;;;;4971463;28;20427;-75
2024/03/26 04:48:30;;;;;;;16.25;7.85;;;1.90;99.90;;;;;;4969323;28;20486;-75
2024/03/26 04:50:56;;;;;;;18.30;9.00;;;1.90;99.90;;;;;;4959007;28;20034;-74
2024/03/26 04:53:21;;;;;;;16.02;9.05;;;1.90;99.90;;;;;;4967196;28;20437;-74
2024/03/26 04:55:49;;;;;;;14.25;8.35;;;1.90;99.90;;;;;;4970252;28;20034;-74
2024/03/26 04:58:15;;;;;;;20.50;8.98;;;1.80;99.90;;;;;;4970149;28;20425;-74
2024/03/26 05:00:43;;;;;;;13.27;8.43;;;1.80;99.90;;;;;;4969346;28;20047;-74
2024/03/26 05:03:11;;;;;;;16.13;8.55;;;1.80;99.90;;;;;;4956785;28;20030;-75
2024/03/26 05:05:40;;;;;;;21.50;7.90;;;1.80;99.90;;;;;;4985915;28;20035;-74
2024/03/26 05:08:05;;;;;;;15.55;9.25;;;1.80;99.90;;;;;;4985723;28;20018;-74
2024/03/26 05:10:33;;;;;;;25.23;10.15;;;1.80;99.90;;;;;;4969419;28;20656;-74
2024/03/26 05:12:59;;;;;;;25.83;9.35;;;1.90;99.90;;;;;;4969003;28;20431;-74
2024/03/26 05:15:25;;;;;;;16.15;9.27;;;1.80;99.90;;;;;;4970996;28;20113;-74
2024/03/26 05:17:54;;;;;;;23.13;9.63;;;1.90;99.90;;;;;;4969389;28;20041;-74
2024/03/26 05:20:23;;;;;;;15.82;9.02;;;1.90;99.90;;;;;;4969788;28;20033;-74
2024/03/26 05:22:51;;;;;;;19.35;8.90;;;1.90;99.90;;;;;;4987679;28;20478;-74
2024/03/26 05:25:20;;;;;;;16.10;9.00;;;1.90;99.90;;;;;;4973380;28;20023;-74
2024/03/26 05:27:45;;;;;;;20.52;9.85;;;1.90;99.90;;;;;;4975118;28;20077;-74
2024/03/26 05:30:12;;;;;;;17.45;10.32;;;1.90;99.90;;;;;;4989664;28;20117;-75
2024/03/26 05:32:41;;;;;;;23.52;11.48;;;2.00;99.90;;;;;;4972645;28;20027;-74
2024/03/26 05:35:07;;;;;;;18.75;10.05;;;2.00;99.90;;;;;;4989588;28;20050;-74
2024/03/26 05:37:35;;;;;;;20.75;10.40;;;2.00;99.90;;;;;;4974391;28;20431;-75
2024/03/26 05:40:04;;;;;;;23.42;10.38;;;2.10;99.90;;;;;;4989370;28;20120;-74
2024/03/26 05:42:30;;;;;;;19.23;9.40;;;2.10;99.90;;;;;;4973995;28;20109;-74
2024/03/26 05:44:58;;;;;;;22.73;10.35;;;2.10;99.90;;;;;;4962015;28;20043;-74
2024/03/26 05:47:25;;;;;;;17.73;9.93;;;2.20;99.90;;;;;;4984890;28;20491;-75
2024/03/26 05:49:54;;;;;;;19.00;9.23;;;2.20;99.90;;;;;;4974230;28;20021;-75
2024/03/26 05:52:19;;;;;;;20.60;10.80;;;2.30;99.90;;;;;;4973976;28;20483;-75
2024/03/26 05:54:47;;;;;;;24.60;10.82;;;2.30;99.90;;;;;;4971984;28;20109;-74
2024/03/26 05:57:15;;;;;;;19.60;10.32;;;2.30;99.90;;;;;;4975059;28;20113;-75
2024/03/26 05:59:44;;;;;;;21.08;9.23;;;2.40;99.90;;;;;;4972664;28;20049;-75
2024/03/26 06:02:10;;;;;;;22.58;10.32;;;2.40;99.90;;;;;;4973838;28;20359;-74
2024/03/26 06:04:39;;;;;;;19.02;10.23;;;2.50;99.90;;;;;;4988947;28;20022;-74
2024/03/26 06:07:05;;;;;;;18.95;9.98;;;2.50;99.90;;;;;;4988912;28;20030;-74
2024/03/26 06:09:33;;;;;;;20.45;9.60;;;2.50;99.90;;;;;;4988815;28;20023;-74
2024/03/26 06:12:02;;;;;;;23.60;10.55;;;2.60;99.90;;;;;;4973408;28;20023;-74
2024/03/26 06:14:28;;;;;;;21.35;10.00;;;2.70;99.90;;;;;;4985682;28;20057;-74
2024/03/26 06:16:54;;;;;;;24.13;11.85;;;2.70;99.90;;;;;;4965041;28;20043;-75
2024/03/26 06:19:22;;;;;;;21.35;10.82;;;2.70;99.90;;;;;;4972533;28;20090;-74
2024/03/26 06:21:50;;;;;;;14.27;9.10;;;2.80;99.90;;;;;;4973447;28;20053;-75
2024/03/26 06:24:19;;;;;;;21.00;10.25;;;2.80;99.90;;;;;;4973876;28;20026;-74
2024/03/26 06:26:44;;;;;;;22.48;9.80;;;2.90;99.90;;;;;;4973571;28;20038;-74
2024/03/26 06:29:13;;;;;;;20.42;9.73;;;3.00;99.90;;;;;;4988619;28;20023;-75
2024/03/26 06:31:42;;;;;;;15.98;8.98;;;3.00;99.90;;;;;;4972023;28;20452;-74
2024/03/26 06:34:08;;;;;;;22.38;10.20;;;3.10;99.90;;;;;;4971353;28;20023;-74
2024/03/26 06:36:34;;;;;;;15.95;9.73;;;3.10;99.90;;;;;;4976574;28;20027;-74
2024/03/26 06:38:59;;;;;;;18.98;9.68;;;3.10;99.90;;;;;;4971939;28;20149;-74
2024/03/26 06:41:25;;;;;;;23.65;10.73;;;3.20;99.90;;;;;;4972147;28;20015;-75
2024/03/26 06:43:53;;;;;;;19.88;10.25;;;3.20;99.90;;;;;;4962949;28;20027;-74
2024/03/26 06:46:19;;;;;;;22.40;10.15;;;3.20;99.90;;;;;;4959580;28;20019;-74
2024/03/26 06:48:47;;;;;;;20.77;10.48;;;3.20;99.90;;;;;;4987921;28;20041;-75
2024/03/26 06:51:15;;;;;;;30.40;11.82;;;3.30;99.90;;;;;;4987933;28;20121;-75
2024/03/26 06:53:44;;;;;;;18.00;10.70;;;3.30;99.90;;;;;;4972289;28;20027;-75
2024/03/26 06:56:09;;;;;;;36.65;12.35;;;3.30;99.90;;;;;;4968579;28;20097;-74
2024/03/26 06:58:40;;;;;;;19.85;10.77;;;3.30;99.90;;;;;;4953699;28;20031;-74
2024/03/26 07:01:05;;;;;;;;;;;3.40;99.90;;;;;;4966056;28;20382;-74
2024/03/26 07:03:33;;;;;;;27.75;10.85;;;3.40;99.90;;;;;;4972572;28;19912;-75
2024/03/26 07:06:04;;;;;;;20.45;10.25;;;3.40;99.90;;;;;;4976869;28;20531;-74
2024/03/26 07:08:31;;;;;;;22.38;10.63;;;3.50;99.90;;;;;;4968528;28;20030;-75
2024/03/26 07:10:57;;;;;;;17.67;10.40;;;3.50;99.90;;;;;;4987568;28;20030;-75
2024/03/26 07:13:26;;;;;;;27.35;11.18;;;3.60;99.90;;;;;;4970870;28;20069;-74
2024/03/26 07:15:52;;;;;;;17.80;9.35;;;3.70;99.90;;;;;;4972495;28;20078;-75
2024/03/26 07:18:19;;;;;;;23.15;10.68;;;3.70;99.90;;;;;;4972926;28;20050;-76
2024/03/26 07:20:46;;;;;;;20.20;9.27;;;3.80;99.90;;;;;;4971647;28;20026;-75
2024/03/26 07:23:12;;;;;;;19.98;8.60;;;3.90;99.90;;;;;;4972455;28;20019;-76
2024/03/26 07:25:38;;;;;;;16.98;9.30;;;4.00;99.90;;;;;;4971556;28;20031;-75
2024/03/26 07:28:07;;;;;;;18.65;9.35;;;4.00;99.90;;;;;;4973092;28;20123;-76
2024/03/26 07:30:34;;;;;;;15.77;9.32;;;4.10;99.90;;;;;;4972554;28;20027;-75
2024/03/26 07:33:06;;;;;;;23.92;9.68;;;4.20;99.90;;;;;;4971885;28;20458;-75
2024/03/26 07:35:32;;;;;;;17.45;9.10;;;4.30;99.90;;;;;;4972335;28;20034;-75
2024/03/26 07:37:58;;;;;;;22.42;9.40;;;4.40;99.90;;;;;;4972131;28;20030;-75
2024/03/26 07:40:24;;;;;;;17.42;8.20;;;4.50;99.90;;;;;;4970546;28;20517;-75
2024/03/26 07:42:52;;;;;;;20.63;8.85;;;4.50;99.90;;;;;;4970282;28;20031;-75
2024/03/26 07:45:21;;;;;;;18.50;8.15;;;4.60;99.90;;;;;;4969815;28;20053;-75
2024/03/26 07:47:50;;;;;;;14.10;8.55;;;4.70;99.90;;;;;;4970585;28;20030;-75
2024/03/26 07:50:16;;;;;;;16.70;8.75;;;4.90;99.90;;;;;;4972010;28;20114;-75
2024/03/26 07:52:45;;;;;;;16.27;8.70;;;5.00;99.90;;;;;;4970324;28;20114;-75
2024/03/26 07:55:11;;;;;;;17.85;8.77;;;5.20;99.90;;;;;;4986762;28;20173;-75
2024/03/26 07:57:40;;;;;;;12.77;8.43;;;5.30;99.90;;;;;;4971811;28;20053;-75
2024/03/26 08:00:10;;;;;;;12.73;7.72;;;5.60;99.90;;;;;;4971790;28;20478;-75
2024/03/26 08:02:36;;;;;;;10.65;7.55;;;5.80;99.90;;;;;;4971628;28;20031;-75
2024/03/26 08:05:02;;;;;;;13.60;6.90;;;6.00;99.90;;;;;;4971689;28;20109;-75
2024/03/26 08:07:28;;;;;;;9.73;6.90;;;6.20;99.90;;;;;;4986532;28;20057;-75
2024/03/26 08:09:54;;;;;;;16.77;7.30;;;6.40;99.90;;;;;;4970274;28;20027;-75
2024/03/26 08:12:26;;;;;;;9.60;6.70;;;6.70;99.90;;;;;;4969954;28;20049;-75
2024/03/26 08:14:51;;;;;;;12.88;7.80;;;6.90;99.90;;;;;;4971783;28;20027;-75
2024/03/26 08:17:20;;;;;;;10.65;6.40;;;7.20;99.90;;;;;;4986518;28;20038;-76
2024/03/26 08:19:45;;;;;;;16.02;7.13;;;7.60;99.90;;;;;;4971536;28;20026;-75
2024/03/26 08:22:11;;;;;;;10.88;6.25;;;8.00;99.90;;;;;;4967350;28;20041;-75
2024/03/26 08:24:37;;;;;;;13.07;7.57;;;8.50;99.90;;;;;;4952247;28;20019;-76
2024/03/26 08:27:06;;;;;;;13.40;7.78;;;8.90;99.90;;;;;;4950700;28;20023;-76
2024/03/26 08:29:32;;;;;;;9.55;7.00;;;9.40;99.90;;;;;;4958911;28;20046;-76
2024/03/26 08:31:58;;;;;;;9.88;6.35;;;10.30;99.90;;;;;;4963132;28;20058;-76
2024/03/26 08:34:23;;;;;;;12.80;6.00;;;11.40;98.40;;;;;;4966221;28;20081;-74
2024/03/26 08:36:49;;;;;;;10.50;5.90;;;12.40;96.50;;;;;;4951828;28;20082;-74
2024/03/26 08:39:15;;;;;;;8.20;5.03;;;13.20;93.30;;;;;;4951873;28;20034;-74
2024/03/26 08:41:44;;;;;;;7.63;5.65;;;13.60;91.00;;;;;;4951959;28;20031;-73
2024/03/26 08:44:09;;;;;;;6.93;5.35;;;13.40;90.20;;;;;;4951698;28;20023;-73
2024/03/26 08:46:35;;;;;;;9.48;6.13;;;13.20;90.50;;;;;;4966761;28;20110;-73
2024/03/26 08:49:04;;;;;;;8.32;5.18;;;12.80;90.70;;;;;;4950382;28;20378;-76
2024/03/26 08:51:33;;;;;;;9.68;5.15;;;12.70;91.50;;;;;;4966499;28;20112;-73
2024/03/26 08:54:02;;;;;;;6.20;5.20;;;12.90;91.00;;;;;;4951410;28;20090;-73
2024/03/26 08:56:27;;;;;;;5.40;4.53;;;13.00;90.60;;;;;;4966280;28;20050;-73
2024/03/26 08:58:56;;;;;;;9.18;4.85;;;13.30;90.80;;;;;;4960017;28;20263;-73
2024/03/26 09:01:22;;;;;;;6.85;4.30;;;13.90;89.10;;;;;;4959770;28;20089;-73
2024/03/26 09:03:50;;;;;;;7.07;4.75;;;14.80;86.60;;;;;;4958298;28;20498;-74
2024/03/26 09:06:19;;;;;;;6.93;4.40;;;15.50;84.00;;;;;;4951615;28;20414;-74
2024/03/26 09:08:44;;;;;;;7.78;4.45;;;16.00;83.50;;;;;;4950556;28;20175;-73
2024/03/26 09:11:13;;;;;;;6.93;4.45;;;16.20;80.00;;;;;;4951564;28;20493;-74
2024/03/26 09:13:44;;;;;;;5.57;4.35;;;16.30;79.10;;;;;;4977714;28;20031;-73
2024/03/26 09:16:10;;;;;;;6.57;4.20;;;16.40;79.20;;;;;;4985336;28;20030;-73
2024/03/26 09:18:36;;;;;;;8.27;4.30;;;16.30;77.70;;;;;;4970847;28;20526;-74
2024/03/26 09:21:02;;;;;;;5.10;4.18;;;16.60;77.70;;;;;;4968695;28;20031;-73
2024/03/26 09:23:28;;;;;;;4.55;4.05;;;16.30;76.60;;;;;;4964392;28;20019;-74
2024/03/26 09:26:00;;;;;;;8.25;4.65;;;16.30;76.40;;;;;;4969443;28;20027;-74
2024/03/26 09:28:25;;;;;;;6.47;4.40;;;16.00;75.10;;;;;;4970911;28;20477;-74
2024/03/26 09:30:53;;;;;;;6.50;4.32;;;16.00;75.30;;;;;;4970979;28;20022;-74
2024/03/26 09:33:20;;;;;;;8.60;5.63;;;16.00;75.60;;;;;;4970061;28;20023;-74
2024/03/26 09:35:49;;;;;;;6.68;4.85;;;16.10;75.30;;;;;;4969441;28;20171;-74
2024/03/26 09:38:15;;;;;;;5.88;4.63;;;15.80;75.70;;;;;;4967226;28;20023;-74
2024/03/26 09:40:46;;;;;;;6.53;4.68;;;15.70;77.60;;;;;;4951179;28;20118;-74
2024/03/26 09:43:13;;;;;;;8.45;5.00;;;15.80;76.20;;;;;;4950905;28;20542;-74
2024/03/26 09:45:39;;;;;;;8.75;5.40;;;15.80;74.70;;;;;;4958124;28;20029;-75
2024/03/26 09:48:08;;;;;;;7.35;4.55;;;15.60;75.70;;;;;;4983177;28;20023;-74
2024/03/26 09:50:36;;;;;;;8.15;5.18;;;16.00;75.90;;;;;;4965266;28;20027;-75
2024/03/26 09:53:03;;;;;;;6.30;5.00;;;16.20;74.90;;;;;;4969919;28;20393;-74
2024/03/26 09:55:28;;;;;;;7.50;4.97;;;16.20;74.50;;;;;;4969226;28;20034;-74
2024/03/26 09:57:57;;;;;;;6.63;4.57;;;15.50;74.10;;;;;;4970465;28;20370;-74
2024/03/26 10:00:24;;;;;;;7.75;5.35;;;15.80;76.00;;;;;;4970415;28;20023;-74
2024/03/26 10:02:55;;;;;;;6.57;4.95;;;16.50;74.40;;;;;;4984781;28;20030;-75
2024/03/26 10:05:22;;;;;;;8.23;5.53;;;15.80;73.60;;;;;;4962984;28;20011;-75
2024/03/26 10:07:47;;;;;;;11.00;5.22;;;15.50;76.40;;;;;;4985343;28;20062;-74
2024/03/26 10:10:16;;;;;;;7.43;5.30;;;15.20;77.60;;;;;;4970537;28;20054;-75
2024/03/26 10:12:42;;;;;;;6.85;5.55;;;15.20;79.20;;;;;;4969146;28;20078;-75
2024/03/26 10:15:08;;;;;;;6.45;5.45;;;14.50;78.50;;;;;;4954751;28;20554;-74
2024/03/26 10:17:37;;;;;;;12.20;5.93;;;14.50;79.30;;;;;;4953531;28;20037;-75
2024/03/26 10:20:06;;;;;;;9.27;5.22;;;13.70;80.70;;;;;;4970783;28;20240;-76
2024/03/26 10:22:32;;;;;;;8.43;6.22;;;13.60;83.00;;;;;;4974994;28;20027;-77
2024/03/26 10:24:58;;;;;;;10.77;6.75;;;13.50;85.20;;;;;;4969259;28;20278;-78
2024/03/26 10:27:24;;;;;;;7.22;5.55;;;13.80;85.20;;;;;;4953230;28;20394;-78
2024/03/26 10:29:52;;;;;;;7.47;5.43;;;14.30;83.40;;;;;;4953383;28;20039;-78
2024/03/26 10:32:22;;;;;;;8.52;5.82;;;14.10;83.90;;;;;;4972102;28;20150;-75
2024/03/26 10:34:59;;;;;;;;;;;14.40;84.70;;;;;;4973960;28;20521;-75
2024/03/26 10:37:30;;;;;;;7.10;5.75;;;14.30;82.90;;;;;;4976226;28;20020;-75
2024/03/26 10:40:26;;;;;;;8.02;5.05;;;14.70;82.40;;;;;;4982116;28;20027;-76
2024/03/26 10:42:52;;;;;;;9.80;6.10;;;15.50;82.10;;;;;;4969104;28;20117;-76
2024/03/26 10:45:18;;;;;;;7.05;5.70;;;15.60;80.20;;;;;;4954180;28;20019;-76
2024/03/26 10:47:49;;;;;;;5.93;4.88;;;15.50;80.40;;;;;;4954082;28;20550;-76
2024/03/26 10:50:41;;;;;;;8.38;6.53;;;15.60;80.90;;;;;;4953877;28;20042;-76
2024/03/26 10:53:07;;;;;;;7.57;5.32;;;15.80;82.10;;;;;;4950499;28;20031;-74
2024/03/26 10:55:37;;;;;;;8.65;5.65;;;16.00;80.10;;;;;;4966474;28;20505;-74
2024/03/26 10:58:03;;;;;;;7.60;5.70;;;16.30;79.70;;;;;;4953805;28;20111;-73
2024/03/26 11:00:32;;;;;;;6.00;5.40;;;16.30;78.00;;;;;;4977935;28;20311;-73
2024/03/26 11:03:00;;;;;;;9.67;5.13;;;15.80;80.00;;;;;;4961241;28;20062;-76
2024/03/26 11:05:29;;;;;;;7.97;5.28;;;15.20;79.00;;;;;;4962249;28;20439;-76
2024/03/26 11:07:55;;;;;;;7.22;5.10;;;14.70;80.90;;;;;;4952463;28;20078;-76
2024/03/26 11:10:26;;;;;;;10.50;5.85;;;14.40;84.40;;;;;;4953855;28;20455;-76
2024/03/26 11:12:52;;;;;;;8.60;5.30;;;14.00;83.70;;;;;;4960462;28;20027;-75
2024/03/26 11:15:19;;;;;;;7.40;5.60;;;13.90;84.90;;;;;;4987774;28;20022;-77
2024/03/26 11:17:55;;;;;;;8.38;6.28;;;13.70;85.70;;;;;;4987441;28;20426;-76
2024/03/26 11:20:23;;;;;;;7.05;6.00;;;13.50;86.70;;;;;;4971084;28;20015;-77
2024/03/26 11:23:19;;;;;;;9.77;5.93;;;13.30;86.50;;;;;;4972583;28;20019;-75
2024/03/26 11:25:54;;;;;;;6.88;5.25;;;13.10;88.60;;;;;;4972654;28;20625;-75
2024/03/26 11:28:21;;;;;;;8.30;6.57;;;13.00;88.10;;;;;;4971145;28;20051;-75
2024/03/26 11:30:47;;;;;;;9.75;5.95;;;12.80;88.20;;;;;;4972077;28;20053;-75
2024/03/26 11:33:26;;;;;;;7.28;5.78;;;12.70;89.40;;;;;;4973467;28;20062;-75
2024/03/26 11:35:53;;;;;;;13.80;7.40;;;12.70;90.50;;;;;;4971755;28;20055;-75
2024/03/26 11:38:20;;;;;;;10.23;6.60;;;12.70;89.00;;;;;;4971480;28;20421;-75
2024/03/26 11:40:47;;;;;;;10.30;7.50;;;12.60;90.20;;;;;;4972520;28;20027;-75
2024/03/26 11:43:13;;;;;;;11.25;6.07;;;12.60;90.40;;;;;;4971602;28;20070;-75
2024/03/26 11:45:39;;;;;;;6.18;5.28;;;12.60;90.50;;;;;;4958884;28;20122;-75
2024/03/26 11:48:06;;;;;;;8.18;6.63;;;12.70;90.80;;;;;;4961209;28;20023;-75
2024/03/26 11:50:32;;;;;;;6.93;6.22;;;12.80;90.60;;;;;;4967414;28;20076;-75
2024/03/26 11:53:00;;;;;;;11.15;7.32;;;12.70;90.30;;;;;;4983043;28;20072;-75
2024/03/26 11:55:29;;;;;;;9.82;6.55;;;12.70;90.60;;;;;;4972080;28;20558;-75
2024/03/26 11:57:55;;;;;;;8.77;6.70;;;12.70;90.10;;;;;;4970829;28;20049;-75
2024/03/26 12:00:22;;;;;;;11.52;7.20;;;12.80;90.90;;;;;;4972031;28;20385;-75
2024/03/26 12:02:48;;;;;;;10.23;7.03;;;12.90;90.30;;;;;;4986445;28;20398;-75
2024/03/26 12:05:14;;;;;;;10.32;6.53;;;13.00;90.70;;;;;;4971805;28;20078;-75
2024/03/26 12:07:41;;;;;;;12.20;7.20;;;13.00;90.50;;;;;;4970416;28;20102;-75
2024/03/26 12:10:08;;;;;;;11.25;7.47;;;13.00;91.50;;;;;;4971592;28;20015;-75
2024/03/26 12:12:38;;;;;;;9.23;6.82;;;13.00;90.70;;;;;;4971206;28;20022;-75
2024/03/26 12:15:12;;;;;;;10.88;7.03;;;13.10;91.60;;;;;;4986455;28;20137;-75
2024/03/26 12:17:41;;;;;;;11.35;7.30;;;13.10;90.60;;;;;;4971530;28;20121;-75
2024/03/26 12:20:11;;;;;;;9.80;6.63;;;13.00;90.70;;;;;;4969971;28;20051;-75
2024/03/26 12:22:40;;;;;;;12.65;6.97;;;12.80;91.20;;;;;;4986098;28;20101;-74
2024/03/26 12:25:07;;;;;;;10.35;7.00;;;12.80;90.50;;;;;;4969752;28;20495;-75
2024/03/26 12:27:33;;;;;;;9.68;6.80;;;12.70;91.30;;;;;;4951309;28;20090;-75
2024/03/26 12:29:59;;;;;;;10.77;7.00;;;12.90;91.20;;;;;;4951008;28;20063;-75
2024/03/26 12:32:28;;;;;;;9.38;7.35;;;13.00;91.20;;;;;;4951289;28;20058;-75
2024/03/26 12:34:54;;;;;;;10.05;6.65;;;13.00;90.90;;;;;;4952007;28;20475;-75
2024/03/26 12:37:24;;;;;;;15.00;7.20;;;13.00;90.70;;;;;;4961033;28;20037;-75
2024/03/26 12:39:50;;;;;;;;;;;12.70;90.90;;;;;;4970526;28;20438;-75
2024/03/26 12:42:21;;;;;;;9.60;7.82;;;12.80;91.00;;;;;;4969304;28;20044;-75
2024/03/26 12:44:50;;;;;;;11.98;8.32;;;12.90;91.60;;;;;;4986303;28;20019;-75
2024/03/26 12:47:18;;;;;;;10.27;7.20;;;12.80;91.40;;;;;;4985893;28;20027;-75
2024/03/26 12:49:44;;;;;;;11.80;7.60;;;12.70;91.60;;;;;;4958013;28;20030;-75